Time;durP1;ratioP1;P1;durP2;ratioP2;P2;SDS_P1;SDS_P2;PMS_P1;PMS_P2;Temp;Humidity;BMP_temperature;BMP_pressure;BME280_temperature;BME280_humidity;BME280_pressure;Samples;Min_cycle;Max_cycle;Signal;HPM_P1;HPM_P2
2021/01/15 00:01:45;;;;;;;12.07;7.57;;;-0.40;97.10;;;;;;5073318;28;20103;-66
2021/01/15 00:04:10;;;;;;;12.20;7.25;;;-0.40;97.70;;;;;;5072208;28;20020;-65
2021/01/15 00:06:36;;;;;;;12.27;7.63;;;-0.50;98.00;;;;;;5072676;28;20082;-65
2021/01/15 00:09:02;;;;;;;14.93;8.63;;;-0.50;98.00;;;;;;5052693;28;20032;-65
2021/01/15 00:11:30;;;;;;;14.25;7.78;;;-0.50;97.50;;;;;;5054988;28;20447;-65
2021/01/15 00:14:00;;;;;;;15.82;7.25;;;-0.50;97.30;;;;;;5053938;28;20029;-66
2021/01/15 00:16:31;;;;;;;14.73;8.50;;;-0.50;97.20;;;;;;5060952;28;20043;-65
2021/01/15 00:19:00;;;;;;;12.30;7.82;;;-0.50;97.90;;;;;;5059436;28;20063;-65
2021/01/15 00:21:31;;;;;;;13.02;6.72;;;-0.60;97.70;;;;;;5060828;28;20041;-65
2021/01/15 00:24:02;;;;;;;13.70;7.60;;;-0.50;96.20;;;;;;5060390;28;20051;-66
2021/01/15 00:26:29;;;;;;;14.07;7.40;;;-0.50;95.50;;;;;;5060742;28;20039;-65
2021/01/15 00:28:55;;;;;;;14.82;6.95;;;-0.50;95.90;;;;;;5060094;28;20021;-65
2021/01/15 00:31:35;;;;;;;12.25;6.97;;;-0.60;96.80;;;;;;5061009;28;20457;-64
2021/01/15 00:34:02;;;;;;;11.77;6.93;;;-0.60;97.90;;;;;;5060874;28;20476;-64
2021/01/15 00:36:28;;;;;;;13.68;6.80;;;-0.70;97.70;;;;;;5060046;28;20052;-63
2021/01/15 00:38:54;;;;;;;11.30;7.00;;;-0.70;97.50;;;;;;5044312;28;20024;-64
2021/01/15 00:41:20;;;;;;;11.88;5.95;;;-0.70;98.10;;;;;;5060362;28;20423;-64
2021/01/15 00:43:45;;;;;;;10.80;5.18;;;-0.70;98.40;;;;;;5059948;28;20036;-64
2021/01/15 00:46:31;;;;;;;13.10;6.13;;;-0.70;97.70;;;;;;5060614;28;20082;-64
2021/01/15 00:48:58;;;;;;;12.68;5.22;;;-0.80;97.50;;;;;;5060120;28;20025;-65
2021/01/15 00:51:24;;;;;;;9.40;5.15;;;-0.80;97.40;;;;;;5060514;28;20127;-64
2021/01/15 00:53:50;;;;;;;10.32;5.20;;;-0.90;98.30;;;;;;5043710;28;20556;-64
2021/01/15 00:56:19;;;;;;;9.73;4.85;;;-0.90;98.10;;;;;;5060448;28;20036;-64
2021/01/15 00:58:46;;;;;;;9.82;5.25;;;-1.00;99.00;;;;;;5043863;28;20066;-63
2021/01/15 01:01:13;;;;;;;7.03;5.18;;;-1.00;98.90;;;;;;5059320;28;20029;-65
2021/01/15 01:03:39;;;;;;;9.77;4.57;;;-1.00;99.30;;;;;;5059577;28;20481;-64
2021/01/15 01:06:15;;;;;;;13.90;5.32;;;-1.10;99.20;;;;;;5060937;28;20067;-64
2021/01/15 01:08:41;;;;;;;8.13;4.43;;;-1.10;99.20;;;;;;5061587;28;20047;-64
2021/01/15 01:11:25;;;;;;;11.95;4.90;;;-1.10;99.60;;;;;;5059670;28;20097;-64
2021/01/15 01:13:52;;;;;;;8.00;4.45;;;-1.10;99.90;;;;;;5057100;28;20048;-65
2021/01/15 01:16:19;;;;;;;8.80;4.15;;;-1.10;99.50;;;;;;5060189;28;20492;-64
2021/01/15 01:18:46;;;;;;;10.73;4.00;;;-1.10;99.90;;;;;;5060449;28;20029;-64
2021/01/15 01:21:12;;;;;;;6.93;4.30;;;-1.20;99.90;;;;;;5056207;28;20044;-65
2021/01/15 01:23:38;;;;;;;9.85;4.57;;;-1.20;99.90;;;;;;5060792;28;20037;-64
2021/01/15 01:26:04;;;;;;;9.35;4.25;;;-1.30;99.90;;;;;;5059313;28;20032;-65
2021/01/15 01:28:30;;;;;;;7.80;4.03;;;-1.30;99.90;;;;;;5061316;28;20682;-65
2021/01/15 01:30:56;;;;;;;8.95;3.75;;;-1.30;99.90;;;;;;5061358;28;20021;-65
2021/01/15 01:33:22;;;;;;;8.55;3.47;;;-1.40;99.90;;;;;;5060634;28;20024;-65
2021/01/15 01:35:48;;;;;;;9.63;3.55;;;-1.40;99.90;;;;;;5060893;28;20025;-65
2021/01/15 01:38:14;;;;;;;7.60;3.72;;;-1.40;99.90;;;;;;5058299;28;20064;-65
2021/01/15 01:40:40;;;;;;;9.15;3.63;;;-1.40;99.80;;;;;;5060131;28;20075;-65
2021/01/15 01:43:06;;;;;;;8.65;3.95;;;-1.40;99.10;;;;;;5059346;28;20021;-66
2021/01/15 01:45:32;;;;;;;6.63;3.35;;;-1.30;98.90;;;;;;5061313;28;20025;-64
2021/01/15 01:47:59;;;;;;;8.27;3.85;;;-1.30;98.70;;;;;;5059157;28;20060;-64
2021/01/15 01:50:26;;;;;;;5.00;3.47;;;-1.30;98.50;;;;;;5061577;28;20028;-64
2021/01/15 01:52:51;;;;;;;7.60;3.40;;;-1.40;98.40;;;;;;5064393;28;20392;-64
2021/01/15 01:55:19;;;;;;;7.78;3.63;;;-1.40;99.40;;;;;;5071069;28;20031;-64
2021/01/15 01:57:45;;;;;;;7.43;3.55;;;-1.50;99.90;;;;;;5071404;28;20039;-64
2021/01/15 02:00:13;;;;;;;7.75;3.45;;;-1.50;99.90;;;;;;5040519;28;20037;-63
2021/01/15 02:02:38;;;;;;;5.03;3.50;;;-1.60;99.90;;;;;;5051590;28;20029;-64
2021/01/15 02:05:06;;;;;;;5.22;3.20;;;-1.70;99.90;;;;;;5050745;28;20044;-64
2021/01/15 02:07:32;;;;;;;4.18;2.92;;;-1.70;99.90;;;;;;5035342;28;20033;-63
2021/01/15 02:10:19;;;;;;;5.78;3.75;;;-1.70;99.90;;;;;;5059593;28;20020;-64
2021/01/15 02:13:25;;;;;;;6.38;3.22;;;-1.70;99.90;;;;;;5061107;28;20025;-64
2021/01/15 02:16:16;;;;;;;6.38;2.90;;;-1.60;99.90;;;;;;5047712;28;20055;-65
2021/01/15 02:18:54;;;;;;;7.70;3.30;;;-1.60;99.00;;;;;;5055628;28;20055;-64
2021/01/15 02:21:39;;;;;;;7.18;3.30;;;-1.60;99.00;;;;;;5063446;28;20041;-64
2021/01/15 02:24:29;;;;;;;6.22;3.50;;;-1.60;99.50;;;;;;5064016;28;20027;-65
2021/01/15 02:27:25;;;;;;;5.73;3.67;;;-1.70;99.90;;;;;;5043302;28;20025;-65
2021/01/15 02:30:19;;;;;;;5.28;3.60;;;-1.70;99.90;;;;;;5062882;28;20029;-65
2021/01/15 02:32:50;;;;;;;7.05;3.55;;;-1.80;99.90;;;;;;5037053;28;20388;-64
2021/01/15 02:35:41;;;;;;;6.57;3.15;;;-1.80;99.90;;;;;;5062665;28;20024;-64
2021/01/15 02:38:14;;;;;;;6.97;3.63;;;-1.80;99.90;;;;;;5063296;28;20032;-64
2021/01/15 02:41:06;;;;;;;5.75;3.05;;;-1.90;99.90;;;;;;5064561;28;20417;-64
2021/01/15 02:43:33;;;;;;;6.90;3.22;;;-1.90;99.90;;;;;;5064540;28;20024;-64
2021/01/15 02:46:02;;;;;;;5.53;3.13;;;-2.00;99.90;;;;;;5061263;28;20032;-64
2021/01/15 02:48:31;;;;;;;7.00;3.00;;;-2.00;99.90;;;;;;5062376;28;20037;-64
2021/01/15 02:50:59;;;;;;;7.43;3.83;;;-2.10;99.90;;;;;;5045428;28;20035;-64
2021/01/15 02:53:25;;;;;;;3.90;2.97;;;-2.10;99.90;;;;;;5062041;28;20049;-64
2021/01/15 02:55:51;;;;;;;4.43;3.00;;;-2.10;99.90;;;;;;5063823;28;20110;-63
2021/01/15 02:58:16;;;;;;;4.90;2.80;;;-2.20;99.90;;;;;;5062379;28;20281;-64
2021/01/15 03:00:42;;;;;;;8.35;3.50;;;-2.30;99.90;;;;;;5061792;28;20025;-64
2021/01/15 03:03:10;;;;;;;4.00;2.78;;;-2.30;99.90;;;;;;5061609;28;20031;-64
2021/01/15 03:05:45;;;;;;;7.57;3.80;;;-2.30;99.90;;;;;;5044982;28;20017;-63
2021/01/15 03:08:13;;;;;;;5.70;3.35;;;-2.40;99.90;;;;;;5062553;28;20051;-64
2021/01/15 03:10:40;;;;;;;8.13;3.35;;;-2.40;99.90;;;;;;5062639;28;20061;-64
2021/01/15 03:13:06;;;;;;;7.35;3.53;;;-2.50;99.90;;;;;;5062191;28;20029;-64
2021/01/15 03:15:36;;;;;;;8.00;3.85;;;-2.50;99.90;;;;;;5063033;28;20125;-63
2021/01/15 03:18:03;;;;;;;6.47;3.50;;;-2.50;99.90;;;;;;5061934;28;20400;-64
2021/01/15 03:20:30;;;;;;;8.07;4.30;;;-2.50;99.90;;;;;;5061387;28;20385;-64
2021/01/15 03:22:57;;;;;;;6.82;3.28;;;-2.50;99.90;;;;;;5062948;28;20448;-64
2021/01/15 03:25:22;;;;;;;6.07;3.50;;;-2.50;99.90;;;;;;5060713;28;20034;-64
2021/01/15 03:27:50;;;;;;;11.82;3.35;;;-2.40;99.90;;;;;;5053925;28;20029;-63
2021/01/15 03:30:21;;;;;;;7.30;3.65;;;-2.40;99.90;;;;;;5053173;28;20478;-64
2021/01/15 03:32:50;;;;;;;9.30;3.85;;;-2.40;99.90;;;;;;5058801;28;20035;-63
2021/01/15 03:35:24;;;;;;;6.85;3.72;;;-2.30;99.90;;;;;;5053168;28;20546;-64
2021/01/15 03:38:19;;;;;;;8.35;3.22;;;-2.40;99.90;;;;;;5053707;28;20078;-63
2021/01/15 03:40:46;;;;;;;4.80;3.28;;;-2.40;99.90;;;;;;5046550;28;20040;-63
2021/01/15 03:43:16;;;;;;;5.60;3.75;;;-2.40;99.90;;;;;;5072597;28;20035;-63
2021/01/15 03:45:43;;;;;;;6.63;3.00;;;-2.40;99.90;;;;;;5073497;28;20024;-63
2021/01/15 03:48:10;;;;;;;6.20;3.63;;;-2.40;99.90;;;;;;5072537;28;20048;-63
2021/01/15 03:50:36;;;;;;;6.05;2.83;;;-2.50;99.90;;;;;;5071983;28;20365;-64
2021/01/15 03:53:02;;;;;;;8.10;4.05;;;-2.50;99.90;;;;;;5053110;28;20060;-64
2021/01/15 03:55:27;;;;;;;8.00;3.90;;;-2.60;99.90;;;;;;5053363;28;20061;-63
2021/01/15 03:57:53;;;;;;;6.47;3.63;;;-2.60;99.90;;;;;;5053356;28;20040;-64
2021/01/15 04:00:19;;;;;;;7.60;3.45;;;-2.60;99.90;;;;;;5053639;28;20031;-64
2021/01/15 04:02:45;;;;;;;9.88;3.97;;;-2.60;99.90;;;;;;5053009;28;20433;-63
2021/01/15 04:05:13;;;;;;;6.18;3.30;;;-2.60;99.90;;;;;;5052385;28;20025;-63
2021/01/15 04:07:39;;;;;;;6.70;3.85;;;-2.60;99.90;;;;;;5053052;28;20060;-63
2021/01/15 04:10:07;;;;;;;7.35;3.45;;;-2.60;99.90;;;;;;5052557;28;20036;-64
2021/01/15 04:12:33;;;;;;;6.63;3.95;;;-2.60;99.90;;;;;;5052832;28;20108;-63
2021/01/15 04:14:58;;;;;;;10.30;3.42;;;-2.60;99.90;;;;;;5053000;28;20121;-64
2021/01/15 04:17:24;;;;;;;7.57;3.78;;;-2.50;99.90;;;;;;5051880;28;20036;-63
2021/01/15 04:19:50;;;;;;;10.07;3.90;;;-2.50;99.90;;;;;;5034691;28;20095;-63
2021/01/15 04:22:15;;;;;;;8.02;3.60;;;-2.50;99.90;;;;;;5051673;28;20040;-63
2021/01/15 04:24:41;;;;;;;5.68;3.75;;;-2.60;99.90;;;;;;5072868;28;20020;-63
2021/01/15 04:27:07;;;;;;;5.07;3.30;;;-2.60;99.90;;;;;;5072068;28;20024;-63
2021/01/15 04:29:32;;;;;;;5.70;3.70;;;-2.70;99.90;;;;;;5064367;28;20025;-63
2021/01/15 04:31:58;;;;;;;8.02;3.83;;;-2.70;99.90;;;;;;5034934;28;20036;-63
2021/01/15 04:34:24;;;;;;;6.13;4.32;;;-2.70;99.90;;;;;;5051903;28;20052;-63
2021/01/15 04:36:49;;;;;;;11.05;4.70;;;-2.70;99.90;;;;;;5052818;28;20033;-63
2021/01/15 04:39:15;;;;;;;8.63;3.75;;;-2.80;99.90;;;;;;5051711;28;20037;-63
2021/01/15 04:41:47;;;;;;;7.32;4.82;;;-2.80;99.90;;;;;;5034849;28;20032;-63
2021/01/15 04:44:12;;;;;;;6.65;3.88;;;-2.90;99.90;;;;;;5052080;28;20399;-63
2021/01/15 04:46:40;;;;;;;7.90;4.30;;;-2.90;99.90;;;;;;5053764;28;20032;-63
2021/01/15 04:49:09;;;;;;;9.32;4.97;;;-2.90;99.90;;;;;;5070584;28;20032;-63
2021/01/15 04:51:36;;;;;;;8.48;4.20;;;-3.00;99.90;;;;;;5072064;28;20043;-63
2021/01/15 04:54:03;;;;;;;14.27;4.80;;;-3.00;99.90;;;;;;5071888;28;20369;-64
2021/01/15 04:56:48;;;;;;;10.40;4.97;;;-3.10;99.90;;;;;;5071491;28;20033;-63
2021/01/15 04:59:15;;;;;;;9.82;4.05;;;-3.00;99.90;;;;;;5071232;28;20037;-63
2021/01/15 05:01:45;;;;;;;10.73;4.88;;;-3.10;99.90;;;;;;5072272;28;20033;-63
2021/01/15 05:04:19;;;;;;;8.65;4.75;;;-3.20;99.90;;;;;;5071262;28;20366;-63
2021/01/15 05:06:52;;;;;;;13.85;5.10;;;-3.20;99.90;;;;;;5067406;28;20025;-63
2021/01/15 05:09:23;;;;;;;6.97;4.63;;;-3.20;99.90;;;;;;5052612;28;20386;-63
2021/01/15 05:11:50;;;;;;;11.10;5.30;;;-3.20;99.90;;;;;;5052132;28;20035;-63
2021/01/15 05:14:17;;;;;;;10.23;5.40;;;-3.20;99.90;;;;;;5051349;28;20424;-63
2021/01/15 05:16:44;;;;;;;9.20;5.38;;;-3.30;99.90;;;;;;5056221;28;20430;-63
2021/01/15 05:19:12;;;;;;;9.55;4.82;;;-3.20;99.90;;;;;;5050849;28;20083;-63
2021/01/15 05:21:38;;;;;;;9.73;5.22;;;-3.20;99.90;;;;;;5052580;28;20028;-63
2021/01/15 05:24:06;;;;;;;7.65;5.53;;;-3.20;99.90;;;;;;5051592;28;20053;-63
2021/01/15 05:26:39;;;;;;;11.15;5.20;;;-3.20;99.90;;;;;;5053937;28;20411;-64
2021/01/15 05:29:07;;;;;;;9.65;4.85;;;-3.10;99.90;;;;;;5071330;28;20074;-64
2021/01/15 05:31:55;;;;;;;10.77;5.45;;;-3.10;99.90;;;;;;5066208;28;20033;-63
2021/01/15 05:34:23;;;;;;;8.82;4.88;;;-3.00;99.90;;;;;;5052475;28;20063;-63
2021/01/15 05:36:49;;;;;;;8.63;5.82;;;-2.90;99.90;;;;;;5034025;28;20040;-63
2021/01/15 05:39:17;;;;;;;8.20;5.03;;;-2.90;99.90;;;;;;5051529;28;20090;-63
2021/01/15 05:41:45;;;;;;;10.00;5.60;;;-2.90;99.90;;;;;;5051860;28;20075;-63
2021/01/15 05:44:11;;;;;;;11.45;5.18;;;-2.90;99.90;;;;;;5050808;28;20025;-63
2021/01/15 05:46:46;;;;;;;10.82;6.00;;;-3.00;99.90;;;;;;5051648;28;20033;-63
2021/01/15 05:49:12;;;;;;;9.63;5.43;;;-3.10;99.90;;;;;;5057920;28;20461;-63
2021/01/15 05:51:39;;;;;;;8.13;5.22;;;-3.10;99.90;;;;;;5071885;28;20033;-63
2021/01/15 05:54:09;;;;;;;9.25;5.18;;;-3.20;99.90;;;;;;5070737;28;20032;-63
2021/01/15 05:56:46;;;;;;;10.65;5.93;;;-3.20;99.90;;;;;;5071843;28;20115;-63
2021/01/15 05:59:14;;;;;;;9.57;5.72;;;-3.30;99.90;;;;;;5067734;28;20035;-63
2021/01/15 06:01:59;;;;;;;10.10;5.63;;;-3.30;99.90;;;;;;5071313;28;20389;-65
2021/01/15 06:04:31;;;;;;;10.20;5.72;;;-3.40;99.90;;;;;;5070888;28;20051;-62
2021/01/15 06:07:00;;;;;;;7.78;5.00;;;-3.50;99.90;;;;;;5072022;28;20029;-63
2021/01/15 06:09:26;;;;;;;9.33;5.00;;;-3.50;99.90;;;;;;5061693;28;20036;-62
2021/01/15 06:12:01;;;;;;;9.48;5.18;;;-3.40;99.90;;;;;;5057645;28;20727;-65
2021/01/15 06:14:27;;;;;;;11.48;5.97;;;-3.00;99.90;;;;;;5071001;28;20032;-65
2021/01/15 06:17:20;;;;;;;10.07;6.20;;;-2.90;99.90;;;;;;5067628;28;20033;-65
2021/01/15 06:19:45;;;;;;;9.80;5.38;;;-2.80;99.90;;;;;;5066808;28;20174;-65
2021/01/15 06:22:49;;;;;;;7.60;4.45;;;-2.80;99.90;;;;;;5070490;28;20103;-65
2021/01/15 06:25:25;;;;;;;9.20;5.38;;;-2.80;99.90;;;;;;5029441;28;20048;-65
2021/01/15 06:27:58;;;;;;;8.18;5.22;;;-2.80;99.90;;;;;;5070816;28;20037;-65
2021/01/15 06:30:26;;;;;;;9.02;5.25;;;-2.90;99.90;;;;;;5070650;28;20256;-65
2021/01/15 06:32:52;;;;;;;9.95;5.35;;;-3.00;99.90;;;;;;5071384;28;20085;-65
2021/01/15 06:35:27;;;;;;;12.13;5.97;;;-3.10;99.90;;;;;;5070252;28;20460;-66
2021/01/15 06:38:08;;;;;;;12.20;6.93;;;-3.10;99.90;;;;;;5070815;28;20064;-65
2021/01/15 06:40:39;;;;;;;14.45;6.78;;;-3.20;99.90;;;;;;5058452;28;20029;-65
2021/01/15 06:43:21;;;;;;;13.68;6.43;;;-3.20;99.90;;;;;;5050492;28;20075;-66
2021/01/15 06:45:51;;;;;;;10.75;6.28;;;-3.30;99.90;;;;;;5052359;28;20029;-65
2021/01/15 06:48:23;;;;;;;10.23;5.20;;;-3.40;99.90;;;;;;5059584;28;20035;-65
2021/01/15 06:50:54;;;;;;;10.07;5.30;;;-3.60;99.90;;;;;;5059740;28;20059;-65
2021/01/15 06:53:31;;;;;;;12.30;6.25;;;-3.80;99.90;;;;;;5060035;28;20021;-64
2021/01/15 06:56:01;;;;;;;9.05;5.80;;;-3.90;99.90;;;;;;5059718;28;20017;-65
2021/01/15 06:58:41;;;;;;;12.90;6.57;;;-4.00;99.90;;;;;;5060626;28;20124;-65
2021/01/15 07:01:37;;;;;;;10.82;6.10;;;-4.10;99.90;;;;;;5053657;28;20025;-66
2021/01/15 07:04:12;;;;;;;12.93;6.70;;;-4.20;99.90;;;;;;5057332;28;20132;-66
2021/01/15 07:06:38;;;;;;;10.80;6.55;;;-4.30;99.90;;;;;;5062024;28;20044;-65
2021/01/15 07:09:08;;;;;;;9.68;6.18;;;-4.30;99.90;;;;;;5065184;28;20025;-66
2021/01/15 07:11:40;;;;;;;12.75;7.30;;;-4.30;99.90;;;;;;5063443;28;20113;-66
2021/01/15 07:14:06;;;;;;;13.15;7.38;;;-4.30;99.90;;;;;;5068729;28;20032;-66
2021/01/15 07:16:39;;;;;;;12.50;7.25;;;-4.30;99.90;;;;;;5072156;28;20120;-65
2021/01/15 07:19:05;;;;;;;10.65;6.95;;;-4.30;99.90;;;;;;5073465;28;20049;-66
2021/01/15 07:21:35;;;;;;;11.40;6.72;;;-4.20;99.90;;;;;;5074196;28;20380;-65
2021/01/15 07:24:08;;;;;;;11.68;6.85;;;-4.30;99.90;;;;;;5071976;28;20031;-65
2021/01/15 07:26:40;;;;;;;11.18;5.97;;;-4.20;99.90;;;;;;5053941;28;20068;-65
2021/01/15 07:29:15;;;;;;;13.38;6.43;;;-4.30;99.90;;;;;;5036591;28;20033;-66
2021/01/15 07:31:45;;;;;;;13.15;7.07;;;-4.30;99.90;;;;;;5048511;28;20473;-65
2021/01/15 07:34:18;;;;;;;10.07;6.13;;;-4.30;99.90;;;;;;5054975;28;20029;-65
2021/01/15 07:36:44;;;;;;;13.38;7.10;;;-4.30;99.90;;;;;;5073736;28;20028;-65
2021/01/15 07:39:22;;;;;;;11.35;6.38;;;-4.30;99.90;;;;;;5071701;28;20170;-65
2021/01/15 07:41:53;;;;;;;10.75;6.72;;;-4.30;99.90;;;;;;5070796;28;20050;-64
2021/01/15 07:44:21;;;;;;;11.20;6.47;;;-4.30;99.90;;;;;;5072732;28;20056;-65
2021/01/15 07:46:51;;;;;;;10.48;6.70;;;-4.30;99.90;;;;;;5055647;28;20418;-65
2021/01/15 07:49:17;;;;;;;12.88;7.22;;;-4.30;99.90;;;;;;5073223;28;20031;-65
2021/01/15 07:51:43;;;;;;;15.07;7.93;;;-4.20;99.90;;;;;;5050472;28;20033;-63
2021/01/15 07:54:08;;;;;;;18.63;7.93;;;-4.20;99.90;;;;;;5070956;28;20509;-65
2021/01/15 07:56:34;;;;;;;11.93;7.43;;;-4.10;99.90;;;;;;5061333;28;20060;-64
2021/01/15 07:59:00;;;;;;;13.43;7.70;;;-4.10;99.90;;;;;;5072828;28;20033;-68
2021/01/15 08:01:26;;;;;;;17.70;8.70;;;-4.10;99.90;;;;;;5071714;28;20043;-64
2021/01/15 08:03:57;;;;;;;17.88;9.30;;;-4.00;99.90;;;;;;5065836;28;20020;-64
2021/01/15 08:06:24;;;;;;;15.85;8.75;;;-3.90;99.90;;;;;;5059630;28;20625;-64
2021/01/15 08:09:06;;;;;;;17.33;8.25;;;-3.80;99.90;;;;;;5052799;28;20047;-63
2021/01/15 08:11:34;;;;;;;14.77;8.13;;;-3.80;99.90;;;;;;5055792;28;20024;-65
2021/01/15 08:14:23;;;;;;;20.67;9.30;;;-3.70;99.90;;;;;;5067088;28;20032;-64
2021/01/15 08:16:49;;;;;;;14.43;8.48;;;-3.70;99.90;;;;;;5073222;28;20044;-64
2021/01/15 08:19:20;;;;;;;16.17;8.50;;;-3.60;99.90;;;;;;5065105;28;20057;-63
2021/01/15 08:21:47;;;;;;;26.98;13.18;;;-3.50;99.90;;;;;;5059892;28;20430;-64
2021/01/15 08:24:19;;;;;;;19.63;10.80;;;-3.40;99.90;;;;;;5054145;28;20048;-64
2021/01/15 08:26:52;;;;;;;19.52;9.70;;;-3.40;99.90;;;;;;5061420;28;20051;-64
2021/01/15 08:29:20;;;;;;;18.90;10.50;;;-3.30;99.90;;;;;;5059968;28;20032;-64
2021/01/15 08:31:45;;;;;;;17.77;10.32;;;-3.20;99.90;;;;;;5058747;28;20029;-64
2021/01/15 08:34:16;;;;;;;19.55;9.55;;;-3.20;99.90;;;;;;5058969;28;20447;-64
2021/01/15 08:36:56;;;;;;;16.95;9.57;;;-3.10;99.90;;;;;;5060244;28;20047;-64
2021/01/15 08:39:21;;;;;;;11.60;8.02;;;-3.10;99.90;;;;;;5061109;28;20021;-64
2021/01/15 08:41:57;;;;;;;16.73;8.75;;;-3.00;99.90;;;;;;5051928;28;20093;-62
2021/01/15 08:44:34;;;;;;;22.35;9.50;;;-3.00;99.90;;;;;;5062385;28;20079;-66
2021/01/15 08:47:08;;;;;;;14.20;9.25;;;-2.90;99.90;;;;;;5059223;28;20474;-63
2021/01/15 08:49:34;;;;;;;13.75;8.57;;;-2.80;99.90;;;;;;5059808;28;20060;-63
2021/01/15 08:52:01;;;;;;;17.17;8.68;;;-2.70;99.90;;;;;;5052856;28;20064;-63
2021/01/15 08:54:29;;;;;;;19.95;10.05;;;-2.60;99.90;;;;;;5057013;28;20103;-64
2021/01/15 08:56:55;;;;;;;19.88;10.00;;;-2.40;99.10;;;;;;5062261;28;20044;-63
2021/01/15 08:59:29;;;;;;;17.88;9.25;;;-2.40;99.00;;;;;;5060412;28;20106;-65
2021/01/15 09:02:03;;;;;;;18.05;8.98;;;-2.40;99.20;;;;;;5066214;28;20108;-66
2021/01/15 09:04:34;;;;;;;19.33;9.77;;;-2.30;98.90;;;;;;5063462;28;20036;-64
2021/01/15 09:07:02;;;;;;;16.17;9.27;;;-2.30;98.90;;;;;;5055370;28;20025;-64
2021/01/15 09:09:30;;;;;;;17.15;9.07;;;-2.30;99.00;;;;;;5043756;28;20054;-64
2021/01/15 09:12:09;;;;;;;18.20;9.13;;;-2.20;99.00;;;;;;5061037;28;20384;-64
2021/01/15 09:14:35;;;;;;;17.67;9.63;;;-2.20;98.40;;;;;;5059925;28;20032;-65
2021/01/15 09:17:06;;;;;;;17.98;9.15;;;-2.10;96.90;;;;;;5063807;28;20037;-64
2021/01/15 09:19:34;;;;;;;19.13;10.60;;;-2.00;96.10;;;;;;5050594;28;20287;-64
2021/01/15 09:22:04;;;;;;;20.40;9.32;;;-2.00;96.50;;;;;;5042184;28;20029;-64
2021/01/15 09:24:31;;;;;;;16.23;9.57;;;-2.00;97.20;;;;;;5040712;28;20029;-64
2021/01/15 09:27:07;;;;;;;20.73;10.23;;;-1.80;95.50;;;;;;5048251;28;20043;-64
2021/01/15 09:29:34;;;;;;;14.93;8.95;;;-1.70;93.80;;;;;;5046554;28;20456;-64
2021/01/15 09:32:01;;;;;;;17.75;9.82;;;-1.70;93.00;;;;;;5037059;28;20083;-64
2021/01/15 09:34:27;;;;;;;16.60;9.68;;;-1.60;93.60;;;;;;5034479;28;20650;-64
2021/01/15 09:36:54;;;;;;;16.52;9.38;;;-1.50;92.10;;;;;;5034610;28;20032;-65
2021/01/15 09:39:22;;;;;;;16.70;9.85;;;-1.40;92.00;;;;;;5032097;28;20060;-64
2021/01/15 09:41:53;;;;;;;16.92;9.57;;;-1.40;91.70;;;;;;5040628;28;20462;-64
2021/01/15 09:44:19;;;;;;;17.35;9.55;;;-1.50;92.00;;;;;;5041516;28;20028;-64
2021/01/15 09:46:46;;;;;;;15.82;8.70;;;-1.40;92.70;;;;;;5040888;28;20033;-64
2021/01/15 09:49:13;;;;;;;17.08;9.80;;;-1.40;91.20;;;;;;5039898;28;20053;-64
2021/01/15 09:51:39;;;;;;;16.10;9.18;;;-1.40;91.40;;;;;;5036664;28;20120;-64
2021/01/15 09:54:05;;;;;;;16.40;8.25;;;-1.30;91.50;;;;;;5040029;28;20104;-64
2021/01/15 09:56:40;;;;;;;17.52;9.20;;;-1.20;90.60;;;;;;5037156;28;20029;-64
2021/01/15 09:59:06;;;;;;;17.10;8.23;;;-1.10;90.80;;;;;;5033511;28;20055;-65
2021/01/15 10:01:32;;;;;;;17.20;9.60;;;-1.00;87.90;;;;;;5045352;28;20025;-64
2021/01/15 10:03:59;;;;;;;18.48;9.98;;;-0.90;88.40;;;;;;5040776;28;20120;-64
2021/01/15 10:06:30;;;;;;;15.25;8.43;;;-0.90;88.10;;;;;;5035315;28;20040;-64
2021/01/15 10:08:57;;;;;;;18.48;8.98;;;-0.90;88.70;;;;;;5036163;28;20060;-65
2021/01/15 10:11:31;;;;;;;20.02;10.35;;;-1.00;88.70;;;;;;5041275;28;20025;-64
2021/01/15 10:13:58;;;;;;;18.13;9.13;;;-0.90;87.90;;;;;;5040551;28;20470;-64
2021/01/15 10:16:25;;;;;;;14.82;10.02;;;-0.90;88.70;;;;;;5038756;28;20501;-64
2021/01/15 10:18:51;;;;;;;17.90;10.93;;;-0.90;90.20;;;;;;5037855;28;20512;-65
2021/01/15 10:21:21;;;;;;;14.95;9.80;;;-0.90;90.30;;;;;;5055977;28;20099;-63
2021/01/15 10:23:47;;;;;;;21.42;9.68;;;-0.80;89.40;;;;;;5048801;28;21299;-64
2021/01/15 10:26:24;;;;;;;17.33;9.57;;;-0.80;89.20;;;;;;5047623;28;20103;-64
2021/01/15 10:28:58;;;;;;;17.75;9.90;;;-0.80;90.00;;;;;;5058105;28;20083;-64
2021/01/15 10:31:28;;;;;;;19.42;9.98;;;-0.60;88.70;;;;;;5060191;28;20040;-65
2021/01/15 10:33:58;;;;;;;18.08;9.68;;;-0.60;87.60;;;;;;5064357;28;20040;-64
2021/01/15 10:36:24;;;;;;;;;;;-0.60;86.90;;;;;;5045740;28;20420;-64
2021/01/15 10:38:50;;;;;;;18.70;9.70;;;-0.60;86.40;;;;;;5042828;28;19958;-63
2021/01/15 10:41:16;;;;;;;18.23;10.15;;;-0.60;87.40;;;;;;5046332;28;20384;-62
2021/01/15 10:43:42;;;;;;;16.55;10.00;;;-0.50;87.90;;;;;;5062892;28;20064;-63
2021/01/15 10:46:08;;;;;;;19.40;10.43;;;-0.50;88.40;;;;;;5058294;28;20056;-63
2021/01/15 10:48:34;;;;;;;19.80;10.85;;;-0.40;87.90;;;;;;5063465;28;20032;-63
2021/01/15 10:51:00;;;;;;;23.17;10.15;;;-0.40;88.00;;;;;;5062375;28;20137;-62
2021/01/15 10:53:25;;;;;;;17.30;10.32;;;-0.40;87.90;;;;;;5064010;28;20120;-63
2021/01/15 10:55:51;;;;;;;15.68;10.23;;;-0.40;87.80;;;;;;5062410;28;20032;-64
2021/01/15 10:58:17;;;;;;;18.00;10.70;;;-0.30;86.70;;;;;;5065736;28;20035;-63
2021/01/15 11:00:43;;;;;;;18.58;10.23;;;-0.30;85.90;;;;;;5062361;28;20028;-63
2021/01/15 11:03:09;;;;;;;15.52;10.00;;;-0.30;85.00;;;;;;5062235;28;20468;-69
2021/01/15 11:05:35;;;;;;;19.83;10.48;;;-0.20;85.60;;;;;;5064289;28;20021;-69
2021/01/15 11:08:00;;;;;;;22.25;10.95;;;-0.10;83.30;;;;;;5059720;28;20461;-67
2021/01/15 11:10:26;;;;;;;18.15;9.15;;;-0.10;83.00;;;;;;5045991;28;20025;-67
2021/01/15 11:12:58;;;;;;;16.25;9.98;;;-0.10;83.60;;;;;;5062820;28;20032;-67
2021/01/15 11:15:24;;;;;;;16.23;9.75;;;-0.10;84.40;;;;;;5060830;28;20043;-67
2021/01/15 11:17:50;;;;;;;17.00;10.32;;;0.00;83.90;;;;;;5061688;28;20037;-68
2021/01/15 11:20:16;;;;;;;20.42;10.68;;;0.10;83.00;;;;;;5064481;28;20060;-69
2021/01/15 11:22:42;;;;;;;20.17;10.20;;;0.20;83.40;;;;;;5059819;28;20047;-66
2021/01/15 11:25:08;;;;;;;16.50;9.82;;;0.30;81.00;;;;;;5053087;28;20025;-63
2021/01/15 11:27:34;;;;;;;16.15;9.50;;;0.20;82.30;;;;;;5054706;28;20032;-64
2021/01/15 11:30:01;;;;;;;15.68;10.10;;;0.30;81.30;;;;;;5053808;28;20519;-65
2021/01/15 11:32:27;;;;;;;18.98;10.45;;;0.30;82.80;;;;;;5053164;28;20029;-66
2021/01/15 11:34:54;;;;;;;17.70;10.70;;;0.30;82.20;;;;;;5059676;28;20032;-65
2021/01/15 11:37:20;;;;;;;17.15;11.05;;;0.40;80.40;;;;;;5053188;28;20048;-68
2021/01/15 11:39:48;;;;;;;16.67;10.43;;;0.40;80.70;;;;;;5059773;28;20031;-65
2021/01/15 11:42:15;;;;;;;19.77;10.93;;;0.40;81.70;;;;;;5053135;28;20029;-64
2021/01/15 11:44:41;;;;;;;18.23;9.98;;;0.40;80.50;;;;;;5054480;28;20021;-67
2021/01/15 11:47:06;;;;;;;18.30;10.82;;;0.40;80.70;;;;;;5054357;28;20036;-67
2021/01/15 11:49:32;;;;;;;18.10;10.50;;;0.40;81.60;;;;;;5073292;28;20033;-66
2021/01/15 11:51:59;;;;;;;17.60;10.52;;;0.40;80.80;;;;;;5065793;28;20035;-67
2021/01/15 11:54:26;;;;;;;15.15;10.35;;;0.50;80.80;;;;;;5035794;28;20025;-65
2021/01/15 11:56:52;;;;;;;21.02;11.57;;;0.40;81.80;;;;;;5073373;28;20033;-65
2021/01/15 11:59:17;;;;;;;16.75;10.57;;;0.40;82.20;;;;;;5069810;28;20051;-65
2021/01/15 12:01:43;;;;;;;17.63;10.50;;;0.50;80.60;;;;;;5073594;28;20056;-63
2021/01/15 12:04:09;;;;;;;21.60;12.35;;;0.50;82.00;;;;;;5071544;28;20489;-64
2021/01/15 12:06:34;;;;;;;19.40;11.40;;;0.70;81.00;;;;;;5058832;28;20033;-65
2021/01/15 12:09:00;;;;;;;18.13;10.88;;;0.70;80.40;;;;;;5053658;28;20428;-63
2021/01/15 12:11:26;;;;;;;16.77;10.23;;;0.80;79.60;;;;;;5052428;28;20025;-64
2021/01/15 12:13:52;;;;;;;17.63;10.82;;;0.80;79.50;;;;;;5053081;28;20053;-64
2021/01/15 12:16:22;;;;;;;17.13;10.48;;;0.70;79.20;;;;;;5053815;28;20029;-64
2021/01/15 12:18:48;;;;;;;16.48;9.65;;;0.70;80.30;;;;;;5062195;28;20102;-64
2021/01/15 12:21:18;;;;;;;19.23;11.32;;;0.60;81.20;;;;;;5066155;28;21411;-66
2021/01/15 12:23:44;;;;;;;20.05;10.90;;;0.70;81.40;;;;;;5052611;28;20032;-64
2021/01/15 12:26:09;;;;;;;17.40;11.18;;;0.80;79.30;;;;;;5045691;28;20044;-66
2021/01/15 12:28:35;;;;;;;18.25;10.68;;;0.90;79.00;;;;;;5053159;28;20033;-64
2021/01/15 12:31:00;;;;;;;14.90;9.60;;;0.90;79.40;;;;;;5052263;28;20377;-65
2021/01/15 12:33:26;;;;;;;18.70;10.45;;;1.00;77.90;;;;;;5052815;28;20029;-66
2021/01/15 12:35:52;;;;;;;18.30;10.73;;;1.10;77.60;;;;;;5034074;28;20129;-65
2021/01/15 12:38:23;;;;;;;16.42;10.20;;;1.10;77.40;;;;;;5067261;28;20463;-65
2021/01/15 12:40:52;;;;;;;16.27;9.18;;;1.20;77.20;;;;;;5040504;28;20028;-65
2021/01/15 12:43:18;;;;;;;16.33;9.73;;;1.20;76.50;;;;;;5071399;28;20107;-65
2021/01/15 12:45:48;;;;;;;23.17;11.30;;;1.20;76.80;;;;;;5071567;28;20128;-65
2021/01/15 12:48:15;;;;;;;16.65;9.60;;;1.20;76.50;;;;;;5069647;28;20032;-65
2021/01/15 12:50:44;;;;;;;17.83;9.95;;;1.30;75.80;;;;;;5053179;28;20142;-66
2021/01/15 12:53:10;;;;;;;15.00;9.35;;;1.30;75.80;;;;;;5051986;28;20017;-66